Time;durP1;ratioP1;P1;durP2;ratioP2;P2;SDS_P1;SDS_P2;PMS_P1;PMS_P2;Temp;Humidity;BMP_temperature;BMP_pressure;BME280_temperature;BME280_humidity;BME280_pressure;Samples;Min_cycle;Max_cycle;Signal;HPM_P1;HPM_P2
2023/05/23 00:00:01;;;;;;;18.30;12.53;;;14.40;99.90;;;;;;2051358;28;20381;-68
2023/05/23 00:01:02;;;;;;;18.02;12.30;;;14.50;99.90;;;;;;2061054;28;20182;-67
2023/05/23 00:02:07;;;;;;;19.33;12.67;;;14.50;99.90;;;;;;2059296;28;20195;-68
2023/05/23 00:03:09;;;;;;;16.63;11.73;;;14.50;99.90;;;;;;2056087;28;20285;-67
2023/05/23 00:04:15;;;;;;;16.77;11.60;;;14.50;99.90;;;;;;2055789;28;20281;-68
2023/05/23 00:05:16;;;;;;;17.48;12.68;;;14.50;99.90;;;;;;2064353;28;20219;-68
2023/05/23 00:06:22;;;;;;;17.37;12.27;;;14.50;99.90;;;;;;2060064;28;20191;-68
2023/05/23 00:07:23;;;;;;;18.02;11.98;;;14.50;99.90;;;;;;2060011;28;20598;-68
2023/05/23 00:08:24;;;;;;;18.13;12.50;;;14.50;99.90;;;;;;2059872;28;20267;-68
2023/05/23 00:09:25;;;;;;;18.40;12.37;;;14.50;99.90;;;;;;2046623;28;20232;-68
2023/05/23 00:10:27;;;;;;;17.02;11.60;;;14.40;99.90;;;;;;2048108;28;20239;-67
2023/05/23 00:11:28;;;;;;;18.23;12.73;;;14.40;99.90;;;;;;2056114;28;20234;-68
2023/05/23 00:12:28;;;;;;;18.73;12.33;;;14.40;99.90;;;;;;2048555;28;20222;-68
2023/05/23 00:13:32;;;;;;;15.80;11.47;;;14.40;99.90;;;;;;2063712;28;20226;-68
2023/05/23 00:14:34;;;;;;;19.02;11.93;;;14.30;99.90;;;;;;2062673;28;20285;-68
2023/05/23 00:15:36;;;;;;;17.75;11.98;;;14.30;99.90;;;;;;2064038;28;20253;-68
2023/05/23 00:16:40;;;;;;;18.48;12.13;;;14.30;99.90;;;;;;2064220;28;20298;-68
2023/05/23 00:17:41;;;;;;;16.45;11.48;;;14.20;99.90;;;;;;2057767;28;20230;-68
2023/05/23 00:18:44;;;;;;;19.52;12.70;;;14.10;99.90;;;;;;2051126;28;20218;-68
2023/05/23 00:19:45;;;;;;;16.30;12.20;;;14.10;99.90;;;;;;2052227;28;20241;-68
2023/05/23 00:20:46;;;;;;;20.53;12.27;;;14.10;99.90;;;;;;2058080;28;20238;-68
2023/05/23 00:21:47;;;;;;;19.63;13.03;;;14.10;99.90;;;;;;2047952;28;20227;-68
2023/05/23 00:22:48;;;;;;;22.27;12.38;;;14.10;99.90;;;;;;2055863;28;20966;-68
2023/05/23 00:23:49;;;;;;;17.67;12.10;;;14.00;99.90;;;;;;2039770;28;20318;-68
2023/05/23 00:24:50;;;;;;;18.10;12.60;;;13.90;99.90;;;;;;2040019;28;20246;-68
2023/05/23 00:25:54;;;;;;;25.07;12.97;;;13.80;99.90;;;;;;2055167;28;20239;-67
2023/05/23 00:26:55;;;;;;;20.65;13.25;;;13.70;99.90;;;;;;2049815;28;20761;-67
2023/05/23 00:27:56;;;;;;;20.17;12.37;;;13.70;99.90;;;;;;2059918;28;20317;-67
2023/05/23 00:28:57;;;;;;;16.47;11.60;;;13.70;99.90;;;;;;2068234;28;20230;-67
2023/05/23 00:29:58;;;;;;;19.35;11.82;;;13.70;99.90;;;;;;2068003;28;20230;-68
2023/05/23 00:30:59;;;;;;;20.27;13.53;;;13.70;99.90;;;;;;2060023;28;20240;-68
2023/05/23 00:31:59;;;;;;;19.47;12.83;;;13.70;99.90;;;;;;2060859;28;20230;-68
2023/05/23 00:33:02;;;;;;;17.70;12.83;;;13.80;99.90;;;;;;2060750;28;20241;-68
2023/05/23 00:34:02;;;;;;;20.48;13.60;;;13.80;99.90;;;;;;2059142;28;20244;-68
2023/05/23 00:35:03;;;;;;;17.63;12.53;;;13.80;99.90;;;;;;2060445;28;20190;-67
2023/05/23 00:36:04;;;;;;;21.85;13.00;;;13.70;99.90;;;;;;2059981;28;20218;-68
2023/05/23 00:37:06;;;;;;;16.77;12.05;;;13.70;99.90;;;;;;2051748;28;20187;-68
2023/05/23 00:38:07;;;;;;;18.15;12.75;;;13.70;99.90;;;;;;2060270;28;20182;-68
2023/05/23 00:39:08;;;;;;;21.27;12.53;;;13.80;99.90;;;;;;2059662;28;20243;-68
2023/05/23 00:40:10;;;;;;;19.90;12.75;;;13.70;99.90;;;;;;2044058;28;20195;-68
2023/05/23 00:41:11;;;;;;;23.80;14.27;;;13.70;99.90;;;;;;2043522;29;20210;-67
2023/05/23 00:42:12;;;;;;;21.07;13.03;;;13.70;99.90;;;;;;2055506;28;20230;-67
2023/05/23 00:43:14;;;;;;;16.80;11.90;;;13.80;99.90;;;;;;2063902;28;20533;-67
2023/05/23 00:44:18;;;;;;;17.23;11.32;;;13.80;99.90;;;;;;2055463;28;20221;-67
2023/05/23 00:45:19;;;;;;;15.43;10.90;;;13.70;99.90;;;;;;2060433;28;20203;-67
2023/05/23 00:46:20;;;;;;;18.85;12.13;;;13.70;99.90;;;;;;2060746;28;20226;-67
2023/05/23 00:47:21;;;;;;;21.43;12.43;;;13.70;99.90;;;;;;2060359;28;20293;-67
2023/05/23 00:48:23;;;;;;;17.00;11.10;;;13.60;99.90;;;;;;2047663;28;20234;-67
2023/05/23 00:49:26;;;;;;;17.83;11.95;;;13.60;99.90;;;;;;2047608;28;20231;-67
2023/05/23 00:50:28;;;;;;;16.73;11.25;;;13.60;99.90;;;;;;2047991;28;20707;-68
2023/05/23 00:51:30;;;;;;;16.95;11.95;;;13.60;99.90;;;;;;2063371;28;20234;-68
2023/05/23 00:52:31;;;;;;;17.38;11.93;;;13.50;99.90;;;;;;2059842;28;20237;-68
2023/05/23 00:53:33;;;;;;;20.15;12.48;;;13.50;99.90;;;;;;2059603;28;20598;-68
2023/05/23 00:54:36;;;;;;;17.27;11.52;;;13.40;99.90;;;;;;2060442;28;20775;-68
2023/05/23 00:55:38;;;;;;;21.67;12.60;;;13.50;99.90;;;;;;2059640;28;20230;-68
2023/05/23 00:56:39;;;;;;;18.23;12.32;;;13.40;99.90;;;;;;2060081;28;20230;-68
2023/05/23 00:57:43;;;;;;;22.17;13.27;;;13.40;99.90;;;;;;2059992;28;20694;-68
2023/05/23 00:58:44;;;;;;;21.75;13.82;;;13.30;99.90;;;;;;2059130;28;20242;-68
2023/05/23 00:59:46;;;;;;;21.43;13.60;;;13.30;99.90;;;;;;2060411;28;20226;-68
2023/05/23 01:00:49;;;;;;;18.90;12.52;;;13.30;99.90;;;;;;2060413;28;20520;-69
2023/05/23 01:01:51;;;;;;;19.42;12.70;;;13.30;99.90;;;;;;2060519;28;20241;-68
2023/05/23 01:02:52;;;;;;;21.48;14.55;;;13.30;99.90;;;;;;2059651;28;20766;-68
2023/05/23 01:03:53;;;;;;;19.50;12.83;;;13.30;99.90;;;;;;2058894;28;20238;-69
2023/05/23 01:04:55;;;;;;;20.20;12.80;;;13.40;99.90;;;;;;2048415;28;20234;-67
2023/05/23 01:05:56;;;;;;;19.75;13.35;;;13.40;99.90;;;;;;2056346;28;20230;-67
2023/05/23 01:06:57;;;;;;;19.93;12.90;;;13.30;99.90;;;;;;2047582;29;20235;-67
2023/05/23 01:07:58;;;;;;;19.60;12.77;;;13.30;99.90;;;;;;2048184;28;20238;-67
2023/05/23 01:09:01;;;;;;;24.70;14.27;;;13.30;99.90;;;;;;2062180;28;20295;-67
2023/05/23 01:10:04;;;;;;;20.83;12.52;;;13.30;99.90;;;;;;2058859;28;20809;-68
2023/05/23 01:11:16;;;;;;;21.02;13.02;;;13.30;99.90;;;;;;2059371;28;20253;-68
2023/05/23 01:12:31;;;;;;;20.60;13.45;;;13.30;99.90;;;;;;2039716;28;20192;-68
2023/05/23 01:13:42;;;;;;;21.08;12.77;;;13.40;99.90;;;;;;2037205;28;20228;-69
2023/05/23 01:14:53;;;;;;;20.58;12.48;;;13.30;99.90;;;;;;2052217;28;20230;-68
2023/05/23 01:16:12;;;;;;;21.98;13.65;;;13.40;99.90;;;;;;2060151;28;20309;-68
2023/05/23 01:17:23;;;;;;;22.38;14.43;;;13.40;99.90;;;;;;2060869;28;20216;-68
2023/05/23 01:18:40;;;;;;;21.38;13.65;;;13.40;99.90;;;;;;2053043;28;20298;-68
2023/05/23 01:20:08;;;;;;;21.38;12.25;;;13.40;99.90;;;;;;2048609;28;20226;-68
2023/05/23 01:21:16;;;;;;;21.50;13.98;;;13.30;99.90;;;;;;2042906;28;20279;-68
2023/05/23 01:23:00;;;;;;;22.75;14.50;;;13.30;99.90;;;;;;2045848;28;20212;-68
2023/05/23 01:24:35;;;;;;;23.25;14.73;;;13.30;99.90;;;;;;2060743;28;20267;-71
2023/05/23 01:26:07;;;;;;;22.88;14.07;;;13.20;99.90;;;;;;2062316;28;20230;-68
2023/05/23 01:27:44;;;;;;;22.17;13.98;;;13.20;99.90;;;;;;2054966;28;20301;-68
2023/05/23 01:28:49;;;;;;;21.02;12.88;;;13.20;99.90;;;;;;2057973;28;20233;-67
2023/05/23 01:29:56;;;;;;;23.75;14.05;;;13.20;99.90;;;;;;2055422;28;20704;-67
2023/05/23 01:31:00;;;;;;;22.65;14.63;;;13.30;99.90;;;;;;2048951;28;20242;-68
2023/05/23 01:32:06;;;;;;;22.90;13.98;;;13.30;99.90;;;;;;2062447;28;20297;-68
2023/05/23 01:33:08;;;;;;;20.10;13.05;;;13.30;99.90;;;;;;2067583;28;20191;-67
2023/05/23 01:34:11;;;;;;;20.48;13.52;;;13.30;99.90;;;;;;2071020;28;20522;-67
2023/05/23 01:35:19;;;;;;;26.08;15.57;;;13.30;99.90;;;;;;2059554;28;20590;-67
2023/05/23 01:36:20;;;;;;;23.05;15.15;;;13.30;99.90;;;;;;2060306;28;20191;-68
2023/05/23 01:37:21;;;;;;;21.00;13.85;;;13.30;99.90;;;;;;2047668;28;20718;-68
2023/05/23 01:38:22;;;;;;;23.50;13.47;;;13.30;99.90;;;;;;2055800;28;20305;-68
2023/05/23 01:39:23;;;;;;;23.73;14.77;;;13.40;99.90;;;;;;2063405;28;20683;-68
2023/05/23 01:40:24;;;;;;;24.77;14.90;;;13.30;99.90;;;;;;2063496;28;20657;-69
2023/05/23 01:41:25;;;;;;;24.05;15.93;;;13.30;99.90;;;;;;2048797;28;20337;-68
2023/05/23 01:42:27;;;;;;;23.60;14.40;;;13.20;99.90;;;;;;2051939;28;20768;-69
2023/05/23 01:43:28;;;;;;;23.80;15.68;;;13.30;99.90;;;;;;2054986;28;20812;-69
2023/05/23 01:44:30;;;;;;;19.75;13.70;;;13.30;99.90;;;;;;2050821;28;20235;-68
2023/05/23 01:45:32;;;;;;;24.27;15.40;;;13.30;99.90;;;;;;2052683;28;20227;-68
2023/05/23 01:46:35;;;;;;;23.98;14.57;;;13.20;99.90;;;;;;2051667;28;20228;-68
2023/05/23 01:47:36;;;;;;;24.70;15.38;;;13.30;99.90;;;;;;2059510;28;20693;-69
2023/05/23 01:48:39;;;;;;;28.00;15.98;;;13.30;99.90;;;;;;2059058;28;20222;-68
2023/05/23 01:49:40;;;;;;;24.98;15.20;;;13.30;99.90;;;;;;2051505;28;20230;-68
2023/05/23 01:50:46;;;;;;;23.63;15.32;;;13.30;99.90;;;;;;2052875;28;20317;-68
2023/05/23 01:51:47;;;;;;;24.25;14.48;;;13.30;99.90;;;;;;2063487;28;20305;-68
2023/05/23 01:52:49;;;;;;;23.00;14.95;;;13.30;99.90;;;;;;2068910;28;20226;-68
2023/05/23 01:53:50;;;;;;;24.42;14.77;;;13.20;99.90;;;;;;2058745;28;20238;-68
2023/05/23 01:54:52;;;;;;;26.80;16.03;;;13.30;99.90;;;;;;2059424;28;20262;-68
2023/05/23 01:55:53;;;;;;;23.27;15.63;;;13.30;99.90;;;;;;2059285;28;20223;-68
2023/05/23 01:56:57;;;;;;;23.92;14.82;;;13.30;99.90;;;;;;2051466;28;20242;-69
2023/05/23 01:57:59;;;;;;;22.35;15.32;;;13.30;99.90;;;;;;2050853;28;20810;-68
2023/05/23 01:59:00;;;;;;;24.75;15.52;;;13.30;99.90;;;;;;2051120;28;20242;-68
2023/05/23 02:00:05;;;;;;;26.13;16.10;;;13.40;99.90;;;;;;2054352;28;20277;-69
2023/05/23 02:01:06;;;;;;;23.95;14.90;;;13.30;99.90;;;;;;2067919;28;20196;-69
2023/05/23 02:02:08;;;;;;;25.67;16.07;;;13.30;99.90;;;;;;2055322;28;20582;-68
2023/05/23 02:03:10;;;;;;;24.40;14.52;;;13.40;99.90;;;;;;2055507;28;20250;-68
2023/05/23 02:04:11;;;;;;;24.80;15.40;;;13.30;99.90;;;;;;2059279;28;20580;-69
2023/05/23 02:05:12;;;;;;;22.00;15.03;;;13.30;99.90;;;;;;2051557;28;20219;-69
2023/05/23 02:06:12;;;;;;;22.93;15.47;;;13.30;99.90;;;;;;2050782;28;20656;-68
2023/05/23 02:07:13;;;;;;;21.23;15.00;;;13.30;99.90;;;;;;2047242;29;20197;-69
2023/05/23 02:08:14;;;;;;;19.95;13.73;;;13.30;99.90;;;;;;2055459;28;20190;-68
2023/05/23 02:09:16;;;;;;;22.70;14.50;;;13.30;99.90;;;;;;2065428;28;20265;-68
2023/05/23 02:10:19;;;;;;;21.73;14.25;;;13.30;99.90;;;;;;2066469;28;20205;-68
2023/05/23 02:11:21;;;;;;;22.95;17.65;;;13.30;99.90;;;;;;2047367;28;21738;-68
2023/05/23 02:12:22;;;;;;;21.38;16.08;;;13.20;99.90;;;;;;2055265;28;20634;-68
2023/05/23 02:13:22;;;;;;;20.87;14.27;;;13.20;99.90;;;;;;2055146;28;20289;-69
2023/05/23 02:14:25;;;;;;;23.00;14.43;;;13.10;99.90;;;;;;2039358;28;20272;-68
2023/05/23 02:15:26;;;;;;;18.95;13.23;;;13.10;99.90;;;;;;2055116;28;20326;-68
2023/05/23 02:16:27;;;;;;;21.25;14.60;;;13.20;99.90;;;;;;2066005;28;20601;-68
2023/05/23 02:17:27;;;;;;;19.47;13.13;;;13.20;99.90;;;;;;2063039;28;20234;-68
2023/05/23 02:18:28;;;;;;;19.97;13.70;;;13.20;99.90;;;;;;2056087;28;20313;-68
2023/05/23 02:19:29;;;;;;;21.02;13.82;;;13.20;99.90;;;;;;2055156;28;20237;-68
2023/05/23 02:20:30;;;;;;;22.33;14.57;;;13.30;99.90;;;;;;2055069;28;20222;-68
2023/05/23 02:21:31;;;;;;;21.83;13.90;;;13.40;99.90;;;;;;2055259;28;20321;-68
2023/05/23 02:22:32;;;;;;;20.90;13.93;;;13.40;99.90;;;;;;2050125;28;20238;-68
2023/05/23 02:23:33;;;;;;;21.60;13.77;;;13.50;99.90;;;;;;2051378;28;20240;-68
2023/05/23 02:24:34;;;;;;;20.42;13.75;;;13.50;99.90;;;;;;2049945;28;20907;-69
2023/05/23 02:25:35;;;;;;;22.07;13.33;;;13.50;99.90;;;;;;2056610;28;20365;-68
2023/05/23 02:26:36;;;;;;;20.70;13.27;;;13.60;99.90;;;;;;2066422;28;20230;-68
2023/05/23 02:27:36;;;;;;;21.20;12.80;;;13.50;99.90;;;;;;2069026;28;20604;-69
2023/05/23 02:28:37;;;;;;;20.57;14.50;;;13.50;99.90;;;;;;2055282;28;20472;-68
2023/05/23 02:29:38;;;;;;;23.10;14.30;;;13.50;99.90;;;;;;2055394;28;20237;-68
2023/05/23 02:30:38;;;;;;;23.17;13.90;;;13.50;99.90;;;;;;2052372;28;20227;-68
2023/05/23 02:31:39;;;;;;;21.33;14.13;;;13.50;99.90;;;;;;2060495;28;20222;-68
2023/05/23 02:32:41;;;;;;;23.47;13.17;;;13.50;99.90;;;;;;2059389;28;20239;-68
2023/05/23 02:33:42;;;;;;;23.35;14.43;;;13.50;99.90;;;;;;2058874;28;20301;-68
2023/05/23 02:34:45;;;;;;;19.37;13.77;;;13.50;99.90;;;;;;2062334;28;20226;-68
2023/05/23 02:35:46;;;;;;;18.65;12.52;;;13.40;99.90;;;;;;2054673;28;20724;-68
2023/05/23 02:36:47;;;;;;;19.63;12.68;;;13.30;99.90;;;;;;2055999;28;20218;-68
2023/05/23 02:37:48;;;;;;;19.60;11.70;;;13.20;99.90;;;;;;2063097;28;20222;-68
2023/05/23 02:38:48;;;;;;;20.23;13.10;;;13.20;99.90;;;;;;2051908;28;20216;-68
2023/05/23 02:39:49;;;;;;;20.23;12.93;;;13.10;99.90;;;;;;2049686;28;20223;-68
2023/05/23 02:40:51;;;;;;;22.93;12.17;;;13.10;99.90;;;;;;2045055;28;20930;-68
2023/05/23 02:41:51;;;;;;;18.17;12.25;;;13.10;99.90;;;;;;2051183;28;20231;-68
2023/05/23 02:42:52;;;;;;;17.07;12.80;;;13.10;99.90;;;;;;2047114;28;20224;-69
2023/05/23 02:43:53;;;;;;;20.77;12.30;;;13.00;99.90;;;;;;2053790;28;20233;-68
2023/05/23 02:44:54;;;;;;;22.83;13.40;;;12.90;99.90;;;;;;2056134;28;20223;-68
2023/05/23 02:45:55;;;;;;;19.07;12.83;;;12.90;99.90;;;;;;2048606;28;20753;-68
2023/05/23 02:46:55;;;;;;;19.53;13.47;;;12.90;99.90;;;;;;2062896;28;20600;-68
2023/05/23 02:47:56;;;;;;;19.90;12.50;;;12.90;99.90;;;;;;2061696;28;20297;-68
2023/05/23 02:48:57;;;;;;;19.13;13.13;;;12.80;99.90;;;;;;2050070;28;20219;-68
2023/05/23 02:49:58;;;;;;;24.47;14.57;;;12.70;99.90;;;;;;2061680;28;20323;-68
2023/05/23 02:50:58;;;;;;;23.43;14.70;;;12.80;99.90;;;;;;2069007;28;20731;-68
2023/05/23 02:52:00;;;;;;;21.23;12.90;;;12.80;99.90;;;;;;2064411;28;20292;-69
2023/05/23 02:53:01;;;;;;;26.25;15.65;;;12.80;99.90;;;;;;2060454;28;20226;-69
2023/05/23 02:54:01;;;;;;;28.33;15.35;;;12.80;99.90;;;;;;2056454;28;20194;-69
2023/05/23 02:55:02;;;;;;;27.67;17.17;;;12.80;99.90;;;;;;2051995;28;20654;-69
2023/05/23 02:56:03;;;;;;;24.50;14.63;;;12.80;99.90;;;;;;2050054;28;20222;-69
2023/05/23 02:57:05;;;;;;;28.20;16.27;;;12.80;99.90;;;;;;2055422;28;20202;-69
2023/05/23 02:58:06;;;;;;;28.63;16.00;;;12.80;99.90;;;;;;2053763;28;20428;-69
2023/05/23 02:59:06;;;;;;;25.50;15.50;;;12.90;99.90;;;;;;2069881;28;20695;-69
2023/05/23 03:00:09;;;;;;;25.70;15.43;;;12.80;99.90;;;;;;2061948;28;20301;-68
2023/05/23 03:01:10;;;;;;;29.42;17.15;;;12.80;99.90;;;;;;2061922;28;20198;-68
2023/05/23 03:02:11;;;;;;;28.75;16.75;;;12.80;99.90;;;;;;2058925;28;20272;-69
2023/05/23 03:03:12;;;;;;;29.00;17.00;;;12.90;99.90;;;;;;2058900;28;20190;-69
2023/05/23 03:04:13;;;;;;;29.70;17.57;;;12.90;99.90;;;;;;2061144;28;20592;-69
2023/05/23 03:05:13;;;;;;;29.50;16.87;;;13.00;99.90;;;;;;2063052;28;20277;-69
2023/05/23 03:06:15;;;;;;;26.00;14.77;;;13.00;99.90;;;;;;2062492;28;20269;-69
2023/05/23 03:07:16;;;;;;;27.08;16.42;;;13.00;99.90;;;;;;2054864;28;20186;-72
2023/05/23 03:08:17;;;;;;;29.42;17.35;;;12.90;99.90;;;;;;2059777;28;20202;-69
2023/05/23 03:09:19;;;;;;;30.03;16.10;;;13.00;99.90;;;;;;2058912;28;20195;-69
2023/05/23 03:10:20;;;;;;;28.48;16.13;;;13.00;99.90;;;;;;2058276;28;20620;-69
2023/05/23 03:11:21;;;;;;;30.13;16.53;;;13.00;99.90;;;;;;2059082;28;20293;-69
2023/05/23 03:12:22;;;;;;;31.92;16.67;;;13.10;99.90;;;;;;2066709;28;20501;-69
2023/05/23 03:13:22;;;;;;;27.27;16.40;;;13.10;99.90;;;;;;2054644;28;20611;-70
2023/05/23 03:14:23;;;;;;;30.40;17.60;;;13.10;99.90;;;;;;2058722;28;20605;-68
2023/05/23 03:15:24;;;;;;;25.03;16.70;;;13.10;99.90;;;;;;2048634;28;20238;-69
2023/05/23 03:16:25;;;;;;;31.13;18.03;;;13.10;99.90;;;;;;2069284;28;20785;-69
2023/05/23 03:17:25;;;;;;;31.20;17.67;;;13.10;99.90;;;;;;2059531;28;20289;-69
2023/05/23 03:18:26;;;;;;;29.13;17.50;;;13.10;99.90;;;;;;2060496;28;20236;-69
2023/05/23 03:19:27;;;;;;;32.97;18.17;;;13.00;99.90;;;;;;2061287;28;20310;-69
2023/05/23 03:20:28;;;;;;;31.93;18.73;;;13.10;99.90;;;;;;2053754;28;20473;-69
2023/05/23 03:21:30;;;;;;;29.30;16.27;;;13.10;99.90;;;;;;2055335;28;20223;-69
2023/05/23 03:22:30;;;;;;;30.85;17.80;;;13.10;99.90;;;;;;2062948;28;20264;-69
2023/05/23 03:23:31;;;;;;;29.47;16.70;;;13.10;99.90;;;;;;2058124;28;20233;-69
2023/05/23 03:24:32;;;;;;;33.07;17.40;;;13.10;99.90;;;;;;2062850;28;20329;-69
2023/05/23 03:25:32;;;;;;;32.23;18.90;;;13.10;99.90;;;;;;2062769;28;20786;-69
2023/05/23 03:26:33;;;;;;;31.17;18.27;;;13.10;99.90;;;;;;2054952;28;20317;-69
2023/05/23 03:27:34;;;;;;;33.73;18.07;;;13.10;99.90;;;;;;2058508;28;20281;-68
2023/05/23 03:28:35;;;;;;;31.65;16.77;;;13.10;99.90;;;;;;2057160;28;20254;-69
2023/05/23 03:29:36;;;;;;;34.33;18.67;;;13.10;99.90;;;;;;2057648;28;20218;-69
2023/05/23 03:30:37;;;;;;;29.83;16.33;;;13.10;99.90;;;;;;2063694;28;20753;-68
2023/05/23 03:31:38;;;;;;;30.52;17.30;;;13.10;99.90;;;;;;2066400;28;20221;-68
2023/05/23 03:32:38;;;;;;;37.67;19.00;;;13.00;99.90;;;;;;2069573;28;20241;-68
2023/05/23 03:33:39;;;;;;;35.37;17.33;;;13.00;99.90;;;;;;2055914;28;20729;-68
2023/05/23 03:34:40;;;;;;;31.67;16.77;;;13.00;99.90;;;;;;2053782;28;20272;-68
2023/05/23 03:35:41;;;;;;;31.40;17.37;;;13.00;99.90;;;;;;2052606;28;20489;-68
2023/05/23 03:36:42;;;;;;;34.07;17.70;;;13.10;99.90;;;;;;2059626;28;20214;-68
2023/05/23 03:37:42;;;;;;;27.67;16.20;;;13.10;99.90;;;;;;2057325;28;20235;-68
2023/05/23 03:38:43;;;;;;;24.73;15.43;;;13.20;99.90;;;;;;2062163;28;20565;-68
2023/05/23 03:39:44;;;;;;;24.17;13.70;;;13.10;99.90;;;;;;2064119;28;20268;-68
2023/05/23 03:40:46;;;;;;;19.37;13.50;;;13.10;99.90;;;;;;2053047;28;20223;-68
2023/05/23 03:41:47;;;;;;;24.13;13.88;;;13.20;99.90;;;;;;2054024;28;20219;-68
2023/05/23 03:43:01;;;;;;;24.02;13.80;;;13.20;99.90;;;;;;2056122;28;20227;-68
2023/05/23 03:44:02;;;;;;;23.00;13.98;;;13.20;99.90;;;;;;2056784;28;20226;-69
2023/05/23 03:45:03;;;;;;;26.67;16.52;;;13.20;99.90;;;;;;2064208;28;20340;-68
2023/05/23 03:46:04;;;;;;;39.28;20.92;;;13.20;99.90;;;;;;2056733;28;20539;-68
2023/05/23 03:47:05;;;;;;;29.83;17.23;;;13.30;99.90;;;;;;2044303;28;20194;-67
2023/05/23 03:48:06;;;;;;;30.45;17.23;;;13.30;99.90;;;;;;2048857;28;20186;-68
2023/05/23 03:49:06;;;;;;;33.50;17.60;;;13.40;99.90;;;;;;2044164;28;20561;-68
2023/05/23 03:50:08;;;;;;;31.07;17.27;;;13.50;99.90;;;;;;2061036;28;20189;-68
2023/05/23 03:51:09;;;;;;;28.13;17.52;;;13.50;99.90;;;;;;2061320;28;20210;-68
2023/05/23 03:52:10;;;;;;;34.20;18.17;;;13.60;99.90;;;;;;2068791;28;20696;-68
2023/05/23 03:53:10;;;;;;;31.58;18.45;;;13.60;99.90;;;;;;2065562;28;20205;-68
2023/05/23 03:54:11;;;;;;;32.87;18.00;;;13.60;99.90;;;;;;2067290;28;20181;-68
2023/05/23 03:55:12;;;;;;;31.47;18.83;;;13.70;99.90;;;;;;2065426;28;20206;-68
2023/05/23 03:56:13;;;;;;;33.33;18.67;;;13.70;99.90;;;;;;2052169;28;20215;-68
2023/05/23 03:57:13;;;;;;;35.37;19.07;;;13.70;99.90;;;;;;2044636;28;20890;-68
2023/05/23 03:58:14;;;;;;;31.67;18.53;;;13.70;99.90;;;;;;2053676;28;20728;-68
2023/05/23 03:59:15;;;;;;;36.27;19.50;;;13.80;99.90;;;;;;2054311;28;20253;-68
2023/05/23 04:00:16;;;;;;;36.03;19.17;;;13.90;99.90;;;;;;2046546;28;20219;-69
2023/05/23 04:01:17;;;;;;;39.78;20.80;;;14.00;99.90;;;;;;2054277;28;20543;-68
2023/05/23 04:02:19;;;;;;;41.60;20.67;;;14.00;99.90;;;;;;2054333;28;20182;-69
2023/05/23 04:03:20;;;;;;;37.28;19.08;;;14.00;99.90;;;;;;2070341;28;20723;-69
2023/05/23 04:04:20;;;;;;;37.67;20.10;;;14.10;99.90;;;;;;2063052;28;20238;-69
2023/05/23 04:05:21;;;;;;;36.03;19.87;;;14.10;99.90;;;;;;2059943;28;20227;-68
2023/05/23 04:06:22;;;;;;;36.93;20.13;;;14.10;99.90;;;;;;2054598;28;20232;-68
2023/05/23 04:07:25;;;;;;;33.93;18.67;;;14.20;99.90;;;;;;2058745;28;20234;-67
2023/05/23 04:08:28;;;;;;;32.58;17.80;;;14.20;99.90;;;;;;2055393;28;20610;-68
2023/05/23 04:09:28;;;;;;;33.22;17.98;;;14.20;99.90;;;;;;2054760;28;20702;-68
2023/05/23 04:10:29;;;;;;;32.50;18.70;;;14.20;99.90;;;;;;2060049;28;20230;-68
2023/05/23 04:11:32;;;;;;;36.97;19.30;;;14.20;99.90;;;;;;2060657;28;20260;-68
2023/05/23 04:12:33;;;;;;;28.30;17.67;;;14.20;99.90;;;;;;2062448;28;20233;-68
2023/05/23 04:13:34;;;;;;;35.47;18.67;;;14.30;99.90;;;;;;2061799;28;20246;-68
2023/05/23 04:14:36;;;;;;;30.50;17.77;;;14.30;99.90;;;;;;2058117;28;20222;-68
2023/05/23 04:15:38;;;;;;;35.47;19.52;;;14.30;99.90;;;;;;2053411;28;20223;-68
2023/05/23 04:16:40;;;;;;;32.58;17.50;;;14.40;99.90;;;;;;2061039;28;20622;-68
2023/05/23 04:17:42;;;;;;;29.33;18.15;;;14.50;99.90;;;;;;2067853;28;20229;-68
2023/05/23 04:18:46;;;;;;;30.03;17.70;;;14.50;99.90;;;;;;2064046;28;20250;-68
2023/05/23 04:19:48;;;;;;;33.65;19.77;;;14.50;99.90;;;;;;2060501;28;20465;-68
2023/05/23 04:20:49;;;;;;;31.38;18.50;;;14.60;99.90;;;;;;2057556;28;20686;-68
2023/05/23 04:21:50;;;;;;;33.45;18.88;;;14.60;99.90;;;;;;2059655;28;20245;-68
2023/05/23 04:22:50;;;;;;;26.10;17.33;;;14.70;99.90;;;;;;2057179;28;20235;-68
2023/05/23 04:23:51;;;;;;;30.70;17.40;;;14.70;99.90;;;;;;2052938;28;20230;-68
2023/05/23 04:24:52;;;;;;;29.35;17.20;;;14.70;99.90;;;;;;2059485;28;20652;-68
2023/05/23 04:25:54;;;;;;;30.87;17.80;;;14.70;99.90;;;;;;2061333;28;20316;-68
2023/05/23 04:26:56;;;;;;;28.27;17.33;;;14.80;99.90;;;;;;2064344;28;20464;-68
2023/05/23 04:27:58;;;;;;;30.15;17.88;;;14.80;99.90;;;;;;2062737;28;21029;-68
2023/05/23 04:28:59;;;;;;;31.77;17.58;;;14.70;99.90;;;;;;2064872;28;20234;-68
2023/05/23 04:30:00;;;;;;;29.90;17.87;;;14.90;99.90;;;;;;2059615;28;20231;-68
2023/05/23 04:31:02;;;;;;;33.07;18.83;;;14.90;99.90;;;;;;2047749;28;20265;-68
2023/05/23 04:32:05;;;;;;;29.80;16.67;;;14.90;99.90;;;;;;2059638;28;20449;-68
2023/05/23 04:33:05;;;;;;;30.97;18.17;;;14.90;99.90;;;;;;2072196;28;20423;-68
2023/05/23 04:34:06;;;;;;;30.33;18.07;;;15.00;99.90;;;;;;2070768;28;20510;-68
2023/05/23 04:35:08;;;;;;;28.77;16.60;;;15.10;99.90;;;;;;2056110;28;20187;-68
2023/05/23 04:36:08;;;;;;;27.83;16.87;;;15.10;99.90;;;;;;2056132;28;20784;-68
2023/05/23 04:37:10;;;;;;;29.97;17.30;;;15.10;99.90;;;;;;2064197;28;20435;-68
2023/05/23 04:38:12;;;;;;;26.83;16.73;;;15.20;99.90;;;;;;2069729;28;20273;-68
2023/05/23 04:39:14;;;;;;;29.67;16.70;;;15.20;99.90;;;;;;2058114;28;20409;-69
2023/05/23 04:40:16;;;;;;;34.97;18.40;;;15.20;99.90;;;;;;2060644;28;20413;-69
2023/05/23 04:41:22;;;;;;;25.53;15.87;;;15.30;99.90;;;;;;2059423;28;20443;-69
2023/05/23 04:42:23;;;;;;;31.00;17.57;;;15.40;99.90;;;;;;2063240;28;20478;-69
2023/05/23 04:43:25;;;;;;;32.27;17.67;;;15.40;99.90;;;;;;2062025;28;20475;-69
2023/05/23 04:44:29;;;;;;;27.97;17.03;;;15.40;99.90;;;;;;2056757;28;20484;-69
2023/05/23 04:45:29;;;;;;;28.93;17.70;;;15.50;99.90;;;;;;2057934;28;21010;-67
2023/05/23 04:46:30;;;;;;;30.03;17.23;;;15.50;99.90;;;;;;2063825;28;20475;-67
2023/05/23 04:47:33;;;;;;;24.87;16.13;;;15.50;99.90;;;;;;2063507;28;20257;-68
2023/05/23 04:48:35;;;;;;;21.70;14.73;;;15.50;99.90;;;;;;2064098;28;20490;-68
2023/05/23 04:49:37;;;;;;;19.07;11.60;;;15.60;99.90;;;;;;2059853;28;20471;-67
2023/05/23 04:50:39;;;;;;;15.43;11.50;;;15.60;99.90;;;;;;2056014;28;20551;-67
2023/05/23 04:51:40;;;;;;;18.03;11.87;;;15.60;99.90;;;;;;2046761;28;20967;-67
2023/05/23 04:52:41;;;;;;;19.83;12.67;;;15.60;99.90;;;;;;2052301;28;20497;-67
2023/05/23 04:53:42;;;;;;;22.03;13.73;;;15.60;99.90;;;;;;2051563;28;20219;-67
2023/05/23 04:54:45;;;;;;;21.67;13.87;;;15.50;99.90;;;;;;2045223;28;20218;-68
2023/05/23 04:55:46;;;;;;;17.70;11.87;;;15.50;99.90;;;;;;2059284;28;20464;-67
2023/05/23 04:56:46;;;;;;;21.03;13.97;;;15.50;99.90;;;;;;2062687;28;21306;-69
2023/05/23 04:57:47;;;;;;;19.07;12.73;;;15.60;99.90;;;;;;2047709;28;20219;-67
2023/05/23 04:58:48;;;;;;;17.37;11.60;;;15.50;99.90;;;;;;2047900;28;20282;-67
2023/05/23 04:59:48;;;;;;;22.50;13.77;;;15.50;99.90;;;;;;2062433;28;20249;-68
2023/05/23 05:00:49;;;;;;;25.27;15.60;;;15.50;99.90;;;;;;2058222;28;20231;-68
2023/05/23 05:01:50;;;;;;;24.13;14.67;;;15.40;99.90;;;;;;2059847;28;20264;-68
2023/05/23 05:02:51;;;;;;;24.37;15.80;;;15.40;99.90;;;;;;2054153;28;20235;-67
2023/05/23 05:03:51;;;;;;;29.07;16.40;;;15.40;99.90;;;;;;2067024;28;20267;-68
2023/05/23 05:04:53;;;;;;;26.70;16.53;;;15.40;99.90;;;;;;2067295;28;20218;-69
2023/05/23 05:05:55;;;;;;;28.47;16.20;;;15.50;99.90;;;;;;2059868;28;20297;-68
2023/05/23 05:06:56;;;;;;;29.13;16.33;;;15.40;99.90;;;;;;2058007;28;20494;-67
2023/05/23 05:07:56;;;;;;;28.47;16.17;;;15.40;99.90;;;;;;2059788;28;20519;-67
2023/05/23 05:08:57;;;;;;;31.33;18.40;;;15.50;99.90;;;;;;2063902;28;20853;-67
2023/05/23 05:09:58;;;;;;;28.90;17.53;;;15.50;99.90;;;;;;2063816;28;20280;-68
2023/05/23 05:10:59;;;;;;;30.63;18.47;;;15.60;99.90;;;;;;2056855;28;20231;-67
2023/05/23 05:12:00;;;;;;;29.90;17.40;;;15.70;99.90;;;;;;2062013;28;20719;-67
2023/05/23 05:13:00;;;;;;;28.53;16.20;;;15.80;99.90;;;;;;2068001;28;20217;-68
2023/05/23 05:14:01;;;;;;;30.93;17.03;;;15.80;99.90;;;;;;2056172;28;20185;-67
2023/05/23 05:15:03;;;;;;;28.87;16.13;;;15.80;99.90;;;;;;2047665;28;20886;-67
2023/05/23 05:16:04;;;;;;;29.03;16.90;;;15.70;99.90;;;;;;2061229;28;20178;-67